sensor_id;sensor_type;location;lat;lon;timestamp;pressure;altitude;pressure_sealevel;temperature;humidity
35291;BME280;21411;50.024;19.220;2023-10-19T00:00:33;98355.20;;;1.84;100.00
35291;BME280;21411;50.024;19.220;2023-10-19T00:03:20;98351.96;;;1.83;100.00
35291;BME280;21411;50.024;19.220;2023-10-19T00:05:46;98348.71;;;1.80;100.00
35291;BME280;21411;50.024;19.220;2023-10-19T00:08:13;98346.58;;;1.78;100.00
35291;BME280;21411;50.024;19.220;2023-10-19T00:10:52;98344.17;;;1.76;100.00
35291;BME280;21411;50.024;19.220;2023-10-19T00:13:51;98341.45;;;1.74;100.00
35291;BME280;21411;50.024;19.220;2023-10-19T00:16:20;98335.17;;;1.73;100.00
35291;BME280;21411;50.024;19.220;2023-10-19T00:18:46;98328.15;;;1.74;100.00
35291;BME280;21411;50.024;19.220;2023-10-19T00:21:18;98326.34;;;1.76;100.00
35291;BME280;21411;50.024;19.220;2023-10-19T00:23:58;98323.26;;;1.78;100.00
35291;BME280;21411;50.024;19.220;2023-10-19T00:26:31;98316.77;;;1.78;100.00
35291;BME280;21411;50.024;19.220;2023-10-19T00:28:57;98321.16;;;1.78;100.00
35291;BME280;21411;50.024;19.220;2023-10-19T00:31:25;98317.88;;;1.77;100.00
35291;BME280;21411;50.024;19.220;2023-10-19T00:33:55;98308.65;;;1.75;100.00
35291;BME280;21411;50.024;19.220;2023-10-19T00:36:22;98303.27;;;1.73;100.00
35291;BME280;21411;50.024;19.220;2023-10-19T00:38:49;98290.11;;;1.74;100.00
35291;BME280;21411;50.024;19.220;2023-10-19T00:41:21;98280.66;;;1.87;100.00
35291;BME280;21411;50.024;19.220;2023-10-19T00:43:49;98277.89;;;1.99;100.00
35291;BME280;21411;50.024;19.220;2023-10-19T00:46:17;98273.20;;;2.05;100.00
35291;BME280;21411;50.024;19.220;2023-10-19T00:51:14;98265.34;;;2.12;100.00
35291;BME280;21411;50.024;19.220;2023-10-19T00:53:55;98263.19;;;2.14;100.00
35291;BME280;21411;50.024;19.220;2023-10-19T00:56:24;98262.05;;;2.16;100.00
35291;BME280;21411;50.024;19.220;2023-10-19T00:58:54;98259.28;;;2.15;100.00
35291;BME280;21411;50.024;19.220;2023-10-19T01:01:28;98257.98;;;2.12;100.00
35291;BME280;21411;50.024;19.220;2023-10-19T01:03:55;98256.58;;;2.09;100.00
35291;BME280;21411;50.024;19.220;2023-10-19T01:06:25;98253.20;;;2.06;100.00
35291;BME280;21411;50.024;19.220;2023-10-19T01:08:52;98250.48;;;2.04;100.00
35291;BME280;21411;50.024;19.220;2023-10-19T01:11:20;98251.09;;;2.02;100.00
35291;BME280;21411;50.024;19.220;2023-10-19T01:13:47;98243.70;;;2.03;100.00
35291;BME280;21411;50.024;19.220;2023-10-19T01:16:15;98235.16;;;2.02;100.00
35291;BME280;21411;50.024;19.220;2023-10-19T01:18:48;98233.08;;;2.01;100.00
35291;BME280;21411;50.024;19.220;2023-10-19T01:21:17;98232.44;;;2.00;100.00
35291;BME280;21411;50.024;19.220;2023-10-19T01:23:47;98234.73;;;1.96;100.00
35291;BME280;21411;50.024;19.220;2023-10-19T01:26:14;98228.44;;;1.91;100.00
35291;BME280;21411;50.024;19.220;2023-10-19T01:28:48;98221.88;;;1.89;100.00
35291;BME280;21411;50.024;19.220;2023-10-19T01:31:16;98219.39;;;1.90;100.00
35291;BME280;21411;50.024;19.220;2023-10-19T01:33:49;98216.14;;;1.92;100.00
35291;BME280;21411;50.024;19.220;2023-10-19T01:36:15;98209.63;;;1.93;100.00
35291;BME280;21411;50.024;19.220;2023-10-19T01:38:52;98196.96;;;1.98;100.00
35291;BME280;21411;50.024;19.220;2023-10-19T01:41:23;98195.60;;;2.05;100.00
35291;BME280;21411;50.024;19.220;2023-10-19T01:43:51;98189.16;;;2.08;100.00
35291;BME280;21411;50.024;19.220;2023-10-19T01:46:23;98182.41;;;2.10;100.00
35291;BME280;21411;50.024;19.220;2023-10-19T01:48:52;98178.19;;;2.10;100.00
35291;BME280;21411;50.024;19.220;2023-10-19T01:51:24;98175.18;;;2.11;100.00
35291;BME280;21411;50.024;19.220;2023-10-19T01:53:53;98177.52;;;2.09;100.00
35291;BME280;21411;50.024;19.220;2023-10-19T01:56:22;98172.49;;;2.08;100.00
35291;BME280;21411;50.024;19.220;2023-10-19T01:58:49;98166.31;;;2.06;100.00
35291;BME280;21411;50.024;19.220;2023-10-19T02:01:18;98160.29;;;2.03;100.00
35291;BME280;21411;50.024;19.220;2023-10-19T02:04:05;98162.17;;;2.00;100.00
35291;BME280;21411;50.024;19.220;2023-10-19T02:06:35;98160.86;;;1.98;100.00
35291;BME280;21411;50.024;19.220;2023-10-19T02:09:11;98157.39;;;1.98;100.00
35291;BME280;21411;50.024;19.220;2023-10-19T02:11:54;98151.48;;;1.96;100.00
35291;BME280;21411;50.024;19.220;2023-10-19T02:14:25;98150.14;;;1.95;100.00
35291;BME280;21411;50.024;19.220;2023-10-19T02:16:54;98153.81;;;1.95;100.00
35291;BME280;21411;50.024;19.220;2023-10-19T02:19:23;98146.41;;;1.96;100.00
35291;BME280;21411;50.024;19.220;2023-10-19T02:21:53;98138.88;;;2.00;100.00
35291;BME280;21411;50.024;19.220;2023-10-19T02:24:20;98137.10;;;2.05;100.00
35291;BME280;21411;50.024;19.220;2023-10-19T02:26:49;98136.56;;;2.09;100.00
35291;BME280;21411;50.024;19.220;2023-10-19T02:29:17;98137.77;;;2.13;100.00
35291;BME280;21411;50.024;19.220;2023-10-19T02:31:45;98139.39;;;2.20;100.00
35291;BME280;21411;50.024;19.220;2023-10-19T02:34:12;98127.15;;;2.27;100.00
35291;BME280;21411;50.024;19.220;2023-10-19T02:36:43;98113.70;;;2.33;100.00
35291;BME280;21411;50.024;19.220;2023-10-19T02:39:11;98104.77;;;2.40;100.00
35291;BME280;21411;50.024;19.220;2023-10-19T02:41:41;98101.66;;;2.47;100.00
35291;BME280;21411;50.024;19.220;2023-10-19T02:44:11;98103.61;;;2.53;100.00
35291;BME280;21411;50.024;19.220;2023-10-19T02:46:48;98094.03;;;2.59;100.00
35291;BME280;21411;50.024;19.220;2023-10-19T02:49:18;98084.83;;;2.64;100.00
35291;BME280;21411;50.024;19.220;2023-10-19T02:51:45;98079.13;;;2.70;100.00
35291;BME280;21411;50.024;19.220;2023-10-19T02:54:13;98074.52;;;2.74;100.00
35291;BME280;21411;50.024;19.220;2023-10-19T02:56:47;98067.23;;;2.79;100.00
35291;BME280;21411;50.024;19.220;2023-10-19T02:59:16;98066.66;;;2.83;100.00
35291;BME280;21411;50.024;19.220;2023-10-19T03:01:42;98065.44;;;2.87;100.00
35291;BME280;21411;50.024;19.220;2023-10-19T03:04:11;98069.63;;;2.91;100.00
35291;BME280;21411;50.024;19.220;2023-10-19T03:06:38;98066.26;;;2.95;100.00
35291;BME280;21411;50.024;19.220;2023-10-19T03:09:08;98060.78;;;2.99;100.00
35291;BME280;21411;50.024;19.220;2023-10-19T03:11:56;98055.85;;;3.03;100.00
35291;BME280;21411;50.024;19.220;2023-10-19T03:14:26;98053.17;;;3.07;100.00
35291;BME280;21411;50.024;19.220;2023-10-19T03:16:53;98048.98;;;3.10;100.00
35291;BME280;21411;50.024;19.220;2023-10-19T03:19:23;98037.23;;;3.13;100.00
35291;BME280;21411;50.024;19.220;2023-10-19T03:21:53;98028.30;;;3.17;100.00
35291;BME280;21411;50.024;19.220;2023-10-19T03:24:26;98023.45;;;3.19;100.00
35291;BME280;21411;50.024;19.220;2023-10-19T03:27:03;98019.94;;;3.22;100.00
35291;BME280;21411;50.024;19.220;2023-10-19T03:29:39;98014.39;;;3.24;100.00
35291;BME280;21411;50.024;19.220;2023-10-19T03:32:06;98009.65;;;3.27;100.00
35291;BME280;21411;50.024;19.220;2023-10-19T03:34:35;98011.39;;;3.31;100.00
35291;BME280;21411;50.024;19.220;2023-10-19T03:37:02;98008.75;;;3.35;100.00
35291;BME280;21411;50.024;19.220;2023-10-19T03:39:33;98007.04;;;3.37;100.00
35291;BME280;21411;50.024;19.220;2023-10-19T03:42:04;98004.98;;;3.39;100.00
35291;BME280;21411;50.024;19.220;2023-10-19T03:44:33;98000.51;;;3.41;100.00
35291;BME280;21411;50.024;19.220;2023-10-19T03:47:15;98001.59;;;3.43;100.00
35291;BME280;21411;50.024;19.220;2023-10-19T03:50:02;98003.86;;;3.47;100.00
35291;BME280;21411;50.024;19.220;2023-10-19T03:52:40;98006.49;;;3.50;100.00
35291;BME280;21411;50.024;19.220;2023-10-19T03:55:07;98000.00;;;3.53;100.00
35291;BME280;21411;50.024;19.220;2023-10-19T03:57:49;97999.45;;;3.57;100.00
35291;BME280;21411;50.024;19.220;2023-10-19T04:00:21;97996.13;;;3.60;100.00
35291;BME280;21411;50.024;19.220;2023-10-19T04:02:54;97988.96;;;3.63;100.00
35291;BME280;21411;50.024;19.220;2023-10-19T04:05:21;97990.23;;;3.65;100.00
35291;BME280;21411;50.024;19.220;2023-10-19T04:07:52;97985.52;;;3.68;100.00
35291;BME280;21411;50.024;19.220;2023-10-19T04:10:22;97982.05;;;3.70;100.00
35291;BME280;21411;50.024;19.220;2023-10-19T04:13:01;97979.77;;;3.73;100.00
35291;BME280;21411;50.024;19.220;2023-10-19T04:15:28;97976.80;;;3.76;100.00
35291;BME280;21411;50.024;19.220;2023-10-19T04:18:00;97971.60;;;3.81;100.00
35291;BME280;21411;50.024;19.220;2023-10-19T04:20:26;97962.52;;;3.83;100.00
35291;BME280;21411;50.024;19.220;2023-10-19T04:22:56;97948.21;;;3.84;100.00
35291;BME280;21411;50.024;19.220;2023-10-19T04:25:36;97938.72;;;3.85;100.00
35291;BME280;21411;50.024;19.220;2023-10-19T04:28:03;97928.67;;;3.85;100.00
35291;BME280;21411;50.024;19.220;2023-10-19T04:30:31;97924.25;;;3.86;100.00
35291;BME280;21411;50.024;19.220;2023-10-19T04:32:59;97926.13;;;3.87;100.00
35291;BME280;21411;50.024;19.220;2023-10-19T04:35:27;97924.97;;;3.88;100.00
35291;BME280;21411;50.024;19.220;2023-10-19T04:37:58;97919.38;;;3.91;100.00
35291;BME280;21411;50.024;19.220;2023-10-19T04:40:25;97910.98;;;3.93;100.00
35291;BME280;21411;50.024;19.220;2023-10-19T04:42:53;97907.69;;;3.95;100.00
35291;BME280;21411;50.024;19.220;2023-10-19T04:45:20;97903.33;;;3.98;100.00
35291;BME280;21411;50.024;19.220;2023-10-19T04:47:51;97902.34;;;4.00;100.00
35291;BME280;21411;50.024;19.220;2023-10-19T04:50:21;97903.80;;;4.02;100.00
35291;BME280;21411;50.024;19.220;2023-10-19T04:52:47;97896.14;;;4.04;100.00
35291;BME280;21411;50.024;19.220;2023-10-19T04:55:14;97893.98;;;4.05;100.00
35291;BME280;21411;50.024;19.220;2023-10-19T04:57:41;97891.52;;;4.05;100.00
35291;BME280;21411;50.024;19.220;2023-10-19T05:00:08;97881.27;;;4.06;100.00
35291;BME280;21411;50.024;19.220;2023-10-19T05:02:39;97887.56;;;4.07;100.00
35291;BME280;21411;50.024;19.220;2023-10-19T05:05:06;97892.11;;;4.07;100.00
35291;BME280;21411;50.024;19.220;2023-10-19T05:07:32;97892.98;;;4.07;100.00
35291;BME280;21411;50.024;19.220;2023-10-19T05:09:59;97896.45;;;4.07;100.00
35291;BME280;21411;50.024;19.220;2023-10-19T05:12:26;97897.77;;;4.09;100.00
35291;BME280;21411;50.024;19.220;2023-10-19T05:14:52;97888.23;;;4.10;100.00
35291;BME280;21411;50.024;19.220;2023-10-19T05:17:19;97886.16;;;4.10;100.00
35291;BME280;21411;50.024;19.220;2023-10-19T05:19:47;97879.70;;;4.09;100.00
35291;BME280;21411;50.024;19.220;2023-10-19T05:22:13;97878.77;;;4.10;100.00
35291;BME280;21411;50.024;19.220;2023-10-19T05:24:40;97877.27;;;4.11;100.00
35291;BME280;21411;50.024;19.220;2023-10-19T05:27:06;97878.00;;;4.14;100.00
35291;BME280;21411;50.024;19.220;2023-10-19T05:29:35;97873.83;;;4.16;100.00
35291;BME280;21411;50.024;19.220;2023-10-19T05:32:02;97874.29;;;4.17;100.00
35291;BME280;21411;50.024;19.220;2023-10-19T05:34:29;97871.95;;;4.17;100.00
35291;BME280;21411;50.024;19.220;2023-10-19T05:36:58;97868.64;;;4.20;100.00
35291;BME280;21411;50.024;19.220;2023-10-19T05:39:28;97866.92;;;4.23;100.00
35291;BME280;21411;50.024;19.220;2023-10-19T05:41:57;97868.44;;;4.24;100.00
35291;BME280;21411;50.024;19.220;2023-10-19T05:44:29;97863.20;;;4.26;100.00
35291;BME280;21411;50.024;19.220;2023-10-19T05:46:57;97867.39;;;4.27;100.00
35291;BME280;21411;50.024;19.220;2023-10-19T05:49:24;97866.20;;;4.29;100.00
35291;BME280;21411;50.024;19.220;2023-10-19T05:51:51;97864.60;;;4.32;100.00
35291;BME280;21411;50.024;19.220;2023-10-19T05:54:17;97868.89;;;4.37;100.00
35291;BME280;21411;50.024;19.220;2023-10-19T05:56:44;97862.74;;;4.40;100.00
35291;BME280;21411;50.024;19.220;2023-10-19T05:59:12;97858.44;;;4.41;100.00
35291;BME280;21411;50.024;19.220;2023-10-19T06:01:39;97857.77;;;4.44;100.00
35291;BME280;21411;50.024;19.220;2023-10-19T06:04:07;97859.72;;;4.46;100.00
35291;BME280;21411;50.024;19.220;2023-10-19T06:06:34;97862.01;;;4.49;100.00
35291;BME280;21411;50.024;19.220;2023-10-19T06:09:02;97858.88;;;4.51;100.00
35291;BME280;21411;50.024;19.220;2023-10-19T06:11:30;97857.44;;;4.54;100.00
35291;BME280;21411;50.024;19.220;2023-10-19T06:13:59;97846.58;;;4.60;100.00
35291;BME280;21411;50.024;19.220;2023-10-19T06:16:26;97843.73;;;4.66;100.00
35291;BME280;21411;50.024;19.220;2023-10-19T06:18:54;97841.52;;;4.73;100.00
35291;BME280;21411;50.024;19.220;2023-10-19T06:21:20;97835.20;;;4.81;100.00
35291;BME280;21411;50.024;19.220;2023-10-19T06:23:47;97836.52;;;4.89;100.00
35291;BME280;21411;50.024;19.220;2023-10-19T06:26:14;97832.20;;;4.99;100.00
35291;BME280;21411;50.024;19.220;2023-10-19T06:28:41;97832.41;;;5.07;100.00
35291;BME280;21411;50.024;19.220;2023-10-19T06:31:07;97829.30;;;5.14;100.00
35291;BME280;21411;50.024;19.220;2023-10-19T06:33:34;97829.98;;;5.22;100.00
35291;BME280;21411;50.024;19.220;2023-10-19T06:36:02;97825.17;;;5.29;100.00
35291;BME280;21411;50.024;19.220;2023-10-19T06:38:30;97825.08;;;5.33;100.00
35291;BME280;21411;50.024;19.220;2023-10-19T06:40:57;97820.89;;;5.33;100.00
35291;BME280;21411;50.024;19.220;2023-10-19T06:43:25;97822.07;;;5.31;100.00
35291;BME280;21411;50.024;19.220;2023-10-19T06:45:55;97814.27;;;5.32;100.00
35291;BME280;21411;50.024;19.220;2023-10-19T06:48:22;97812.65;;;5.35;100.00
35291;BME280;21411;50.024;19.220;2023-10-19T06:50:48;97808.30;;;5.40;100.00
35291;BME280;21411;50.024;19.220;2023-10-19T06:53:15;97804.80;;;5.44;100.00
35291;BME280;21411;50.024;19.220;2023-10-19T06:55:41;97797.73;;;5.47;100.00
35291;BME280;21411;50.024;19.220;2023-10-19T06:58:10;97794.13;;;5.52;100.00
35291;BME280;21411;50.024;19.220;2023-10-19T07:00:38;97793.67;;;5.56;100.00
35291;BME280;21411;50.024;19.220;2023-10-19T07:03:08;97795.84;;;5.60;100.00
35291;BME280;21411;50.024;19.220;2023-10-19T07:05:35;97782.77;;;5.66;100.00
35291;BME280;21411;50.024;19.220;2023-10-19T07:08:02;97784.84;;;5.75;100.00
35291;BME280;21411;50.024;19.220;2023-10-19T07:10:29;97776.67;;;5.89;100.00
35291;BME280;21411;50.024;19.220;2023-10-19T07:12:56;97772.21;;;6.06;100.00
35291;BME280;21411;50.024;19.220;2023-10-19T07:15:24;97772.05;;;6.21;100.00
35291;BME280;21411;50.024;19.220;2023-10-19T07:17:51;97766.52;;;6.34;100.00
35291;BME280;21411;50.024;19.220;2023-10-19T07:20:21;97755.86;;;6.53;100.00
35291;BME280;21411;50.024;19.220;2023-10-19T07:22:55;97747.54;;;6.76;100.00
35291;BME280;21411;50.024;19.220;2023-10-19T07:25:23;97737.58;;;6.99;100.00
35291;BME280;21411;50.024;19.220;2023-10-19T07:27:52;97740.10;;;7.22;100.00
35291;BME280;21411;50.024;19.220;2023-10-19T07:30:20;97742.63;;;7.41;100.00
35291;BME280;21411;50.024;19.220;2023-10-19T07:32:49;97734.95;;;7.57;100.00
35291;BME280;21411;50.024;19.220;2023-10-19T07:35:21;97735.59;;;7.67;100.00
35291;BME280;21411;50.024;19.220;2023-10-19T07:37:49;97734.34;;;7.74;100.00
35291;BME280;21411;50.024;19.220;2023-10-19T07:40:16;97735.80;;;7.78;100.00
35291;BME280;21411;50.024;19.220;2023-10-19T07:42:47;97726.39;;;7.81;100.00
35291;BME280;21411;50.024;19.220;2023-10-19T07:45:15;97723.51;;;7.84;100.00
35291;BME280;21411;50.024;19.220;2023-10-19T07:47:42;97719.15;;;7.90;100.00
35291;BME280;21411;50.024;19.220;2023-10-19T07:50:12;97725.52;;;7.90;100.00
35291;BME280;21411;50.024;19.220;2023-10-19T07:52:46;97727.20;;;7.91;100.00
35291;BME280;21411;50.024;19.220;2023-10-19T07:55:16;97722.44;;;7.88;100.00
35291;BME280;21411;50.024;19.220;2023-10-19T07:57:43;97709.98;;;7.87;100.00
35291;BME280;21411;50.024;19.220;2023-10-19T08:00:11;97709.27;;;7.87;100.00
35291;BME280;21411;50.024;19.220;2023-10-19T08:02:41;97711.89;;;7.90;100.00
35291;BME280;21411;50.024;19.220;2023-10-19T08:05:17;97705.18;;;8.06;100.00
35291;BME280;21411;50.024;19.220;2023-10-19T08:07:47;97694.68;;;8.18;100.00
35291;BME280;21411;50.024;19.220;2023-10-19T08:10:16;97689.52;;;8.30;100.00
35291;BME280;21411;50.024;19.220;2023-10-19T08:12:44;97694.15;;;8.39;100.00
35291;BME280;21411;50.024;19.220;2023-10-19T08:15:13;97699.88;;;8.47;100.00
35291;BME280;21411;50.024;19.220;2023-10-19T08:17:43;97699.50;;;8.54;100.00
35291;BME280;21411;50.024;19.220;2023-10-19T08:20:12;97703.27;;;8.61;100.00
35291;BME280;21411;50.024;19.220;2023-10-19T08:22:58;97700.09;;;8.56;100.00
35291;BME280;21411;50.024;19.220;2023-10-19T08:25:25;97695.65;;;8.51;100.00
35291;BME280;21411;50.024;19.220;2023-10-19T08:27:54;97696.98;;;8.50;100.00
35291;BME280;21411;50.024;19.220;2023-10-19T08:30:24;97692.34;;;8.53;100.00
35291;BME280;21411;50.024;19.220;2023-10-19T08:32:53;97691.92;;;8.61;100.00
35291;BME280;21411;50.024;19.220;2023-10-19T08:35:21;97688.06;;;8.64;100.00
35291;BME280;21411;50.024;19.220;2023-10-19T08:37:51;97676.86;;;8.69;100.00
35291;BME280;21411;50.024;19.220;2023-10-19T08:40:19;97673.46;;;8.74;100.00
35291;BME280;21411;50.024;19.220;2023-10-19T08:42:46;97680.10;;;8.75;100.00
35291;BME280;21411;50.024;19.220;2023-10-19T08:45:13;97678.98;;;8.76;100.00
35291;BME280;21411;50.024;19.220;2023-10-19T08:47:43;97675.12;;;8.77;100.00
35291;BME280;21411;50.024;19.220;2023-10-19T08:50:13;97680.42;;;8.76;100.00
35291;BME280;21411;50.024;19.220;2023-10-19T08:52:41;97675.09;;;8.71;100.00
35291;BME280;21411;50.024;19.220;2023-10-19T08:55:09;97669.66;;;8.75;100.00
35291;BME280;21411;50.024;19.220;2023-10-19T08:57:39;97672.44;;;8.81;100.00
35291;BME280;21411;50.024;19.220;2023-10-19T09:00:07;97671.61;;;8.84;100.00
35291;BME280;21411;50.024;19.220;2023-10-19T09:02:34;97664.48;;;8.83;100.00
35291;BME280;21411;50.024;19.220;2023-10-19T09:05:06;97664.55;;;8.77;100.00
35291;BME280;21411;50.024;19.220;2023-10-19T09:07:34;97660.90;;;8.70;100.00
35291;BME280;21411;50.024;19.220;2023-10-19T09:10:01;97658.96;;;8.65;100.00
35291;BME280;21411;50.024;19.220;2023-10-19T09:12:32;97660.13;;;8.60;100.00
35291;BME280;21411;50.024;19.220;2023-10-19T09:14:58;97657.78;;;8.51;100.00
35291;BME280;21411;50.024;19.220;2023-10-19T09:17:28;97656.45;;;8.48;100.00
35291;BME280;21411;50.024;19.220;2023-10-19T09:19:55;97655.46;;;8.49;100.00
35291;BME280;21411;50.024;19.220;2023-10-19T09:22:22;97656.07;;;8.51;100.00
35291;BME280;21411;50.024;19.220;2023-10-19T09:24:49;97651.26;;;8.51;100.00
35291;BME280;21411;50.024;19.220;2023-10-19T09:27:20;97652.61;;;8.52;100.00
35291;BME280;21411;50.024;19.220;2023-10-19T09:29:49;97653.54;;;8.56;100.00
35291;BME280;21411;50.024;19.220;2023-10-19T09:32:19;97647.89;;;8.58;100.00
35291;BME280;21411;50.024;19.220;2023-10-19T09:34:46;97645.67;;;8.61;100.00
35291;BME280;21411;50.024;19.220;2023-10-19T09:37:15;97643.23;;;8.63;100.00
35291;BME280;21411;50.024;19.220;2023-10-19T09:39:42;97635.89;;;8.64;100.00
35291;BME280;21411;50.024;19.220;2023-10-19T09:42:10;97627.52;;;8.71;100.00
35291;BME280;21411;50.024;19.220;2023-10-19T09:44:44;97622.96;;;8.83;100.00
35291;BME280;21411;50.024;19.220;2023-10-19T09:47:15;97615.45;;;8.97;100.00
35291;BME280;21411;50.024;19.220;2023-10-19T09:49:47;97613.61;;;9.11;100.00
35291;BME280;21411;50.024;19.220;2023-10-19T09:52:16;97611.20;;;9.23;100.00
35291;BME280;21411;50.024;19.220;2023-10-19T09:54:57;97607.65;;;9.35;100.00
35291;BME280;21411;50.024;19.220;2023-10-19T09:57:34;97610.79;;;9.44;100.00
35291;BME280;21411;50.024;19.220;2023-10-19T10:00:04;97614.38;;;9.53;100.00
35291;BME280;21411;50.024;19.220;2023-10-19T10:02:44;97617.19;;;9.61;100.00
35291;BME280;21411;50.024;19.220;2023-10-19T10:10:45;97611.73;;;9.94;100.00
35291;BME280;21411;50.024;19.220;2023-10-19T10:15:54;97595.30;;;9.97;100.00
35291;BME280;21411;50.024;19.220;2023-10-19T10:18:23;97588.02;;;10.01;100.00
35291;BME280;21411;50.024;19.220;2023-10-19T10:21:19;97586.84;;;10.06;100.00
35291;BME280;21411;50.024;19.220;2023-10-19T10:24:00;97581.89;;;10.08;100.00
35291;BME280;21411;50.024;19.220;2023-10-19T10:26:27;97580.08;;;10.15;100.00
35291;BME280;21411;50.024;19.220;2023-10-19T10:29:22;97581.50;;;10.23;100.00
35291;BME280;21411;50.024;19.220;2023-10-19T10:31:50;97575.14;;;10.37;100.00
35291;BME280;21411;50.024;19.220;2023-10-19T10:37:08;97564.94;;;10.50;100.00
35291;BME280;21411;50.024;19.220;2023-10-19T10:39:39;97560.64;;;10.56;100.00
35291;BME280;21411;50.024;19.220;2023-10-19T10:42:08;97556.23;;;10.66;100.00
35291;BME280;21411;50.024;19.220;2023-10-19T10:47:26;97534.66;;;10.79;100.00
35291;BME280;21411;50.024;19.220;2023-10-19T10:49:53;97530.60;;;10.74;100.00
35291;BME280;21411;50.024;19.220;2023-10-19T10:54:56;97520.63;;;10.65;100.00
35291;BME280;21411;50.024;19.220;2023-10-19T10:57:23;97512.48;;;10.66;100.00
35291;BME280;21411;50.024;19.220;2023-10-19T11:00:09;97507.02;;;10.74;100.00
35291;BME280;21411;50.024;19.220;2023-10-19T11:02:42;97494.73;;;10.80;100.00
35291;BME280;21411;50.024;19.220;2023-10-19T11:05:10;97485.45;;;10.88;100.00
35291;BME280;21411;50.024;19.220;2023-10-19T11:07:41;97483.70;;;10.91;100.00
35291;BME280;21411;50.024;19.220;2023-10-19T11:10:30;97474.71;;;10.93;100.00
35291;BME280;21411;50.024;19.220;2023-10-19T11:13:04;97466.84;;;10.97;100.00
35291;BME280;21411;50.024;19.220;2023-10-19T11:15:33;97462.80;;;10.96;100.00
35291;BME280;21411;50.024;19.220;2023-10-19T11:18:00;97459.08;;;10.93;100.00
35291;BME280;21411;50.024;19.220;2023-10-19T11:20:27;97458.31;;;10.91;100.00
35291;BME280;21411;50.024;19.220;2023-10-19T11:22:55;97456.13;;;10.90;100.00
35291;BME280;21411;50.024;19.220;2023-10-19T11:25:27;97457.05;;;10.89;100.00
35291;BME280;21411;50.024;19.220;2023-10-19T11:28:00;97450.07;;;10.90;100.00
35291;BME280;21411;50.024;19.220;2023-10-19T11:30:29;97438.70;;;10.88;100.00
35291;BME280;21411;50.024;19.220;2023-10-19T11:32:56;97435.60;;;10.87;100.00
35291;BME280;21411;50.024;19.220;2023-10-19T11:35:30;97438.79;;;10.91;100.00
35291;BME280;21411;50.024;19.220;2023-10-19T11:37:58;97437.05;;;10.92;100.00
35291;BME280;21411;50.024;19.220;2023-10-19T11:40:26;97434.45;;;10.86;100.00
35291;BME280;21411;50.024;19.220;2023-10-19T11:42:54;97432.52;;;10.82;100.00
35291;BME280;21411;50.024;19.220;2023-10-19T11:45:23;97424.02;;;10.82;100.00
35291;BME280;21411;50.024;19.220;2023-10-19T11:47:50;97425.13;;;10.85;100.00
35291;BME280;21411;50.024;19.220;2023-10-19T11:50:17;97424.32;;;10.83;100.00
35291;BME280;21411;50.024;19.220;2023-10-19T11:52:46;97414.96;;;10.80;100.00
35291;BME280;21411;50.024;19.220;2023-10-19T11:55:13;97414.67;;;10.81;100.00
35291;BME280;21411;50.024;19.220;2023-10-19T11:57:41;97416.38;;;10.80;100.00
35291;BME280;21411;50.024;19.220;2023-10-19T12:00:12;97415.58;;;10.81;100.00
35291;BME280;21411;50.024;19.220;2023-10-19T12:02:48;97409.19;;;10.79;100.00
35291;BME280;21411;50.024;19.220;2023-10-19T12:05:14;97410.23;;;10.73;100.00
35291;BME280;21411;50.024;19.220;2023-10-19T12:07:41;97411.37;;;10.67;100.00
35291;BME280;21411;50.024;19.220;2023-10-19T12:10:09;97413.95;;;10.62;100.00
35291;BME280;21411;50.024;19.220;2023-10-19T12:12:37;97413.98;;;10.60;100.00
35291;BME280;21411;50.024;19.220;2023-10-19T12:15:06;97414.09;;;10.65;100.00
35291;BME280;21411;50.024;19.220;2023-10-19T12:17:33;97417.67;;;10.72;100.00
35291;BME280;21411;50.024;19.220;2023-10-19T12:20:00;97418.86;;;10.78;100.00
35291;BME280;21411;50.024;19.220;2023-10-19T12:22:26;97412.52;;;10.85;100.00
35291;BME280;21411;50.024;19.220;2023-10-19T12:24:57;97403.30;;;10.89;100.00
35291;BME280;21411;50.024;19.220;2023-10-19T12:27:25;97401.94;;;10.94;100.00
35291;BME280;21411;50.024;19.220;2023-10-19T12:29:52;97397.36;;;10.99;100.00
35291;BME280;21411;50.024;19.220;2023-10-19T12:32:18;97389.52;;;11.01;100.00
35291;BME280;21411;50.024;19.220;2023-10-19T12:34:45;97391.54;;;11.03;100.00
35291;BME280;21411;50.024;19.220;2023-10-19T12:37:11;97390.96;;;11.04;100.00
35291;BME280;21411;50.024;19.220;2023-10-19T12:39:39;97388.86;;;11.08;100.00
35291;BME280;21411;50.024;19.220;2023-10-19T12:42:15;97387.02;;;11.11;100.00
35291;BME280;21411;50.024;19.220;2023-10-19T12:44:42;97389.75;;;11.14;100.00
35291;BME280;21411;50.024;19.220;2023-10-19T12:47:10;97391.11;;;11.18;100.00
35291;BME280;21411;50.024;19.220;2023-10-19T12:49:40;97387.88;;;11.24;100.00
35291;BME280;21411;50.024;19.220;2023-10-19T12:52:10;97382.00;;;11.26;100.00
35291;BME280;21411;50.024;19.220;2023-10-19T12:54:37;97383.26;;;11.26;100.00
35291;BME280;21411;50.024;19.220;2023-10-19T12:57:04;97383.52;;;11.31;100.00
35291;BME280;21411;50.024;19.220;2023-10-19T12:59:34;97380.95;;;11.35;100.00
35291;BME280;21411;50.024;19.220;2023-10-19T13:02:04;97378.03;;;11.39;100.00
35291;BME280;21411;50.024;19.220;2023-10-19T13:04:31;97375.02;;;11.43;100.00
35291;BME280;21411;50.024;19.220;2023-10-19T13:06:57;97369.79;;;11.46;100.00
35291;BME280;21411;50.024;19.220;2023-10-19T13:09:25;97367.56;;;11.51;100.00
35291;BME280;21411;50.024;19.220;2023-10-19T13:11:58;97363.98;;;11.54;100.00
35291;BME280;21411;50.024;19.220;2023-10-19T13:14:26;97364.55;;;11.57;100.00
35291;BME280;21411;50.024;19.220;2023-10-19T13:16:53;97361.11;;;11.60;100.00
35291;BME280;21411;50.024;19.220;2023-10-19T13:19:21;97356.82;;;11.64;100.00